Time;durP1;ratioP1;P1;durP2;ratioP2;P2;SDS_P1;SDS_P2;PMS_P1;PMS_P2;Temp;Humidity;BMP_temperature;BMP_pressure;BME280_temperature;BME280_humidity;BME280_pressure;Samples;Min_cycle;Max_cycle;Signal;HPM_P1;HPM_P2
2023/07/23 00:00:37;;;;;;;0.10;0.10;;;13.60;99.90;;;;;;4976629;28;20214;-83
2023/07/23 00:03:02;;;;;;;0.10;0.10;;;13.50;99.90;;;;;;4996750;28;20209;-83
2023/07/23 00:05:28;;;;;;;0.10;0.10;;;13.50;99.90;;;;;;4996739;28;20213;-83
2023/07/23 00:07:55;;;;;;;0.10;0.10;;;13.50;99.90;;;;;;4995804;28;20201;-83
2023/07/23 00:10:21;;;;;;;0.10;0.10;;;13.60;99.90;;;;;;4990440;28;20284;-84
2023/07/23 00:12:46;;;;;;;0.10;0.10;;;13.50;99.90;;;;;;4994543;28;20562;-84
2023/07/23 00:15:12;;;;;;;0.10;0.10;;;13.50;99.90;;;;;;4994709;28;20878;-83
2023/07/23 00:17:39;;;;;;;0.10;0.10;;;13.50;99.90;;;;;;4993102;28;20186;-83
2023/07/23 00:20:09;;;;;;;0.10;0.10;;;13.50;99.90;;;;;;4995608;28;20467;-84
2023/07/23 00:22:35;;;;;;;0.10;0.10;;;13.50;99.90;;;;;;4989928;28;20452;-84
2023/07/23 00:25:00;;;;;;;0.10;0.10;;;13.50;99.90;;;;;;4991490;28;20440;-83
2023/07/23 00:27:26;;;;;;;0.10;0.10;;;13.50;99.90;;;;;;4988452;28;20220;-84
2023/07/23 00:29:52;;;;;;;0.10;0.10;;;13.50;99.90;;;;;;4981782;28;20192;-83
2023/07/23 00:32:17;;;;;;;0.10;0.10;;;13.40;99.90;;;;;;4990347;28;20189;-83
2023/07/23 00:34:43;;;;;;;0.20;0.20;;;13.40;99.90;;;;;;4990408;28;20212;-84
2023/07/23 00:37:09;;;;;;;0.10;0.10;;;13.40;99.90;;;;;;4991330;28;20206;-85
2023/07/23 00:39:34;;;;;;;0.10;0.10;;;13.50;99.90;;;;;;4991893;28;20213;-82
2023/07/23 00:42:00;;;;;;;0.10;0.10;;;13.50;99.90;;;;;;4993099;28;20192;-83
2023/07/23 00:44:26;;;;;;;0.10;0.10;;;13.50;99.90;;;;;;4985637;28;20225;-84
2023/07/23 00:46:52;;;;;;;0.10;0.10;;;13.50;99.90;;;;;;4959681;28;20310;-84
2023/07/23 00:49:18;;;;;;;0.10;0.10;;;13.50;99.90;;;;;;4993110;28;20460;-84
2023/07/23 00:51:43;;;;;;;0.10;0.10;;;13.50;99.90;;;;;;4990261;28;20181;-82
2023/07/23 00:54:09;;;;;;;0.10;0.10;;;13.50;99.90;;;;;;4990450;28;20276;-83
2023/07/23 00:56:35;;;;;;;0.10;0.10;;;13.40;99.90;;;;;;4988394;28;20189;-82
2023/07/23 00:59:01;;;;;;;0.10;0.10;;;13.40;99.90;;;;;;4992762;28;20188;-82
2023/07/23 01:01:30;;;;;;;0.10;0.10;;;13.40;99.90;;;;;;4986654;28;20557;-84
2023/07/23 01:03:55;;;;;;;0.10;0.10;;;13.40;99.90;;;;;;4975157;28;20189;-82
2023/07/23 01:06:22;;;;;;;0.10;0.10;;;13.40;99.90;;;;;;4972485;28;20615;-84
2023/07/23 01:08:48;;;;;;;0.10;0.10;;;13.40;99.90;;;;;;4979965;28;20192;-83
2023/07/23 01:11:14;;;;;;;0.10;0.10;;;13.40;99.90;;;;;;4974311;28;20468;-84
2023/07/23 01:13:39;;;;;;;0.10;0.10;;;13.40;99.90;;;;;;4992442;28;21026;-83
2023/07/23 01:16:07;;;;;;;0.10;0.10;;;13.40;99.90;;;;;;4990538;28;20261;-84
2023/07/23 01:18:36;;;;;;;0.10;0.10;;;13.40;99.90;;;;;;4971174;28;20193;-84
2023/07/23 01:21:02;;;;;;;0.10;0.10;;;13.40;99.90;;;;;;4989746;28;20452;-83
2023/07/23 01:23:27;;;;;;;0.10;0.10;;;13.40;99.90;;;;;;4990064;28;20455;-84
2023/07/23 01:25:53;;;;;;;0.10;0.10;;;13.40;99.90;;;;;;4982318;28;20221;-83
2023/07/23 01:28:18;;;;;;;0.10;0.10;;;13.40;99.90;;;;;;4992592;28;20192;-84
2023/07/23 01:30:44;;;;;;;0.10;0.10;;;13.40;99.90;;;;;;4971980;28;20185;-84
2023/07/23 01:33:10;;;;;;;0.10;0.10;;;13.40;99.90;;;;;;4987177;28;20199;-84
2023/07/23 01:35:36;;;;;;;0.10;0.10;;;13.40;99.90;;;;;;4987610;28;20436;-86
2023/07/23 01:38:03;;;;;;;0.20;0.20;;;13.40;99.90;;;;;;4990914;28;20850;-85
2023/07/23 01:40:29;;;;;;;0.10;0.10;;;13.40;99.90;;;;;;4988517;28;20217;-84
2023/07/23 01:42:55;;;;;;;0.10;0.10;;;13.40;99.90;;;;;;4990668;28;20480;-85
2023/07/23 01:45:21;;;;;;;0.10;0.10;;;13.30;99.90;;;;;;4967666;28;20253;-83
2023/07/23 01:47:46;;;;;;;0.20;0.20;;;13.30;99.90;;;;;;4971476;28;20981;-82
2023/07/23 01:50:12;;;;;;;0.10;0.10;;;13.30;99.90;;;;;;4955699;28;20190;-84
2023/07/23 01:52:37;;;;;;;0.10;0.10;;;13.30;99.90;;;;;;4965363;28;20217;-84
2023/07/23 01:55:03;;;;;;;0.10;0.10;;;13.30;99.90;;;;;;4970001;28;20202;-83
2023/07/23 01:57:29;;;;;;;0.20;0.20;;;13.30;99.90;;;;;;4969931;28;20189;-84
2023/07/23 01:59:54;;;;;;;0.10;0.10;;;13.30;99.90;;;;;;4968375;28;20452;-83
2023/07/23 02:02:20;;;;;;;0.10;0.10;;;13.30;99.90;;;;;;4968690;28;20196;-84
2023/07/23 02:04:45;;;;;;;0.10;0.10;;;13.40;99.90;;;;;;4970782;28;20197;-86
2023/07/23 02:07:11;;;;;;;0.10;0.10;;;13.30;99.90;;;;;;4970390;28;20221;-86
2023/07/23 02:09:37;;;;;;;0.10;0.10;;;13.30;99.90;;;;;;4964805;28;20185;-85
2023/07/23 02:12:02;;;;;;;0.13;0.13;;;13.30;99.90;;;;;;4957488;28;20860;-84
2023/07/23 02:14:29;;;;;;;0.20;0.20;;;13.30;99.90;;;;;;4967660;28;20233;-83
2023/07/23 02:16:54;;;;;;;0.10;0.10;;;13.40;99.90;;;;;;4971270;28;20190;-84
2023/07/23 02:19:20;;;;;;;0.20;0.20;;;13.30;99.90;;;;;;4969246;28;20457;-84
2023/07/23 02:21:46;;;;;;;0.20;0.20;;;13.40;99.90;;;;;;4972083;28;20217;-84
2023/07/23 02:24:11;;;;;;;0.10;0.10;;;13.40;99.90;;;;;;4966777;28;20196;-83
2023/07/23 02:26:37;;;;;;;0.10;0.10;;;13.40;99.90;;;;;;4966952;28;20229;-85
2023/07/23 02:29:02;;;;;;;0.10;0.10;;;13.40;99.90;;;;;;4970487;28;20856;-84
2023/07/23 02:31:28;;;;;;;0.10;0.10;;;13.40;99.90;;;;;;4966521;28;20236;-84
2023/07/23 02:33:53;;;;;;;0.10;0.10;;;13.40;99.90;;;;;;4971205;28;20288;-84
2023/07/23 02:36:19;;;;;;;0.20;0.20;;;13.40;99.90;;;;;;4967274;28;20198;-83
2023/07/23 02:38:44;;;;;;;0.20;0.20;;;13.40;99.90;;;;;;4969725;28;20186;-84
2023/07/23 02:41:10;;;;;;;0.10;0.10;;;13.40;99.90;;;;;;4968779;28;20289;-83
2023/07/23 02:43:35;;;;;;;0.10;0.10;;;13.40;99.90;;;;;;4974301;28;20225;-84
2023/07/23 02:46:01;;;;;;;0.10;0.10;;;13.40;99.90;;;;;;4970217;28;20225;-83
2023/07/23 02:48:26;;;;;;;0.10;0.10;;;13.40;99.90;;;;;;4983640;28;20186;-84
2023/07/23 02:50:52;;;;;;;0.10;0.10;;;13.50;99.90;;;;;;4989741;28;20592;-84
2023/07/23 02:53:18;;;;;;;0.10;0.10;;;13.50;99.90;;;;;;4990256;28;20196;-85
2023/07/23 02:55:45;;;;;;;0.10;0.10;;;13.50;99.90;;;;;;4989948;28;20475;-84
2023/07/23 02:58:10;;;;;;;0.10;0.10;;;13.50;99.90;;;;;;4989788;28;20451;-82
2023/07/23 03:00:40;;;;;;;0.10;0.10;;;13.50;99.90;;;;;;4985036;28;20448;-84
2023/07/23 03:03:07;;;;;;;0.10;0.10;;;13.50;99.90;;;;;;4988710;28;20192;-83
2023/07/23 03:05:34;;;;;;;0.10;0.10;;;13.50;99.90;;;;;;4988194;28;20467;-84
2023/07/23 03:07:59;;;;;;;0.10;0.10;;;13.50;99.90;;;;;;4984958;28;20468;-83
2023/07/23 03:10:25;;;;;;;0.10;0.10;;;13.50;99.90;;;;;;4986643;28;20482;-83
2023/07/23 03:12:50;;;;;;;0.10;0.10;;;13.50;99.90;;;;;;4990159;28;20252;-84
2023/07/23 03:15:16;;;;;;;0.10;0.10;;;13.50;99.90;;;;;;4956143;28;20181;-84
2023/07/23 03:17:41;;;;;;;0.20;0.20;;;13.50;99.90;;;;;;4970251;28;20185;-83
2023/07/23 03:20:10;;;;;;;0.10;0.10;;;13.50;99.90;;;;;;4988744;28;20680;-84
2023/07/23 03:22:37;;;;;;;0.10;0.10;;;13.50;99.90;;;;;;4987039;28;20334;-82
2023/07/23 03:25:03;;;;;;;0.10;0.10;;;13.50;99.90;;;;;;4987965;28;20464;-82
2023/07/23 03:27:29;;;;;;;0.10;0.10;;;13.50;99.90;;;;;;4989625;28;20483;-82
2023/07/23 03:29:54;;;;;;;0.10;0.10;;;13.60;99.90;;;;;;4990332;28;20499;-83
2023/07/23 03:32:20;;;;;;;0.10;0.10;;;13.50;99.90;;;;;;4964907;28;20214;-83
2023/07/23 03:34:45;;;;;;;0.10;0.10;;;13.50;99.90;;;;;;4987776;28;20188;-84
2023/07/23 03:37:11;;;;;;;0.10;0.10;;;13.60;99.90;;;;;;4987199;28;20805;-83
2023/07/23 03:39:36;;;;;;;0.10;0.10;;;13.60;99.90;;;;;;4981979;28;20245;-83
2023/07/23 03:42:02;;;;;;;0.10;0.10;;;13.60;99.90;;;;;;4984482;28;20185;-83
2023/07/23 03:44:28;;;;;;;0.10;0.10;;;13.60;99.90;;;;;;4987992;28;20374;-85
2023/07/23 03:47:09;;;;;;;0.10;0.10;;;13.60;99.90;;;;;;4972261;28;21047;-84
2023/07/23 03:49:34;;;;;;;0.10;0.10;;;13.70;99.90;;;;;;4988766;28;20228;-83
2023/07/23 03:52:00;;;;;;;0.10;0.10;;;13.60;99.90;;;;;;4987901;28;20476;-82
2023/07/23 03:54:26;;;;;;;0.10;0.10;;;13.60;99.90;;;;;;4986724;28;20328;-83
2023/07/23 03:56:52;;;;;;;0.10;0.10;;;13.70;99.90;;;;;;4981130;28;20611;-83
2023/07/23 03:59:18;;;;;;;0.10;0.10;;;13.70;99.90;;;;;;4992211;28;20444;-83
2023/07/23 04:01:43;;;;;;;0.10;0.10;;;13.70;99.90;;;;;;4987884;28;20444;-83
2023/07/23 04:04:09;;;;;;;0.10;0.10;;;13.70;99.90;;;;;;4993747;28;20680;-83
2023/07/23 04:06:34;;;;;;;0.10;0.10;;;13.70;99.90;;;;;;4990795;28;20224;-82
2023/07/23 04:09:00;;;;;;;0.10;0.10;;;13.70;99.90;;;;;;4991064;28;20185;-83
2023/07/23 04:11:25;;;;;;;0.10;0.10;;;13.70;99.90;;;;;;4991999;28;20185;-83
2023/07/23 04:13:51;;;;;;;0.10;0.10;;;13.70;99.90;;;;;;4973947;28;20182;-83
2023/07/23 04:16:16;;;;;;;0.10;0.10;;;13.70;99.90;;;;;;4991717;28;20177;-83
2023/07/23 04:18:47;;;;;;;0.10;0.10;;;13.70;99.90;;;;;;4968142;28;20203;-83
2023/07/23 04:21:13;;;;;;;0.10;0.10;;;13.80;99.90;;;;;;4990772;28;20272;-84
2023/07/23 04:23:39;;;;;;;0.10;0.10;;;13.70;99.90;;;;;;4989671;28;20464;-84
2023/07/23 04:26:04;;;;;;;0.10;0.10;;;13.80;99.90;;;;;;4991391;28;20494;-83
2023/07/23 04:28:30;;;;;;;0.10;0.10;;;13.80;99.90;;;;;;4991179;28;20217;-83
2023/07/23 04:30:55;;;;;;;0.10;0.10;;;13.80;99.90;;;;;;4986372;28;20201;-83
2023/07/23 04:33:21;;;;;;;0.10;0.10;;;13.80;99.90;;;;;;4989696;28;20216;-84
2023/07/23 04:35:46;;;;;;;0.10;0.10;;;13.80;99.90;;;;;;4992520;28;20224;-84
2023/07/23 04:38:12;;;;;;;0.10;0.10;;;13.80;99.90;;;;;;4990724;28;20197;-84
2023/07/23 04:40:37;;;;;;;0.10;0.10;;;13.80;99.90;;;;;;4993464;28;20545;-84
2023/07/23 04:43:03;;;;;;;0.10;0.10;;;13.80;99.90;;;;;;4992233;28;20637;-83
2023/07/23 04:45:30;;;;;;;0.10;0.10;;;13.80;99.90;;;;;;4993020;28;20192;-84
2023/07/23 04:47:55;;;;;;;0.10;0.10;;;13.80;99.90;;;;;;4977568;28;20259;-86
2023/07/23 04:50:21;;;;;;;0.10;0.10;;;13.80;99.90;;;;;;4992818;28;20833;-85
2023/07/23 04:52:46;;;;;;;0.10;0.10;;;13.80;99.90;;;;;;4972282;28;20220;-85
2023/07/23 04:55:12;;;;;;;0.10;0.10;;;13.80;99.90;;;;;;4991988;28;20189;-85
2023/07/23 04:57:38;;;;;;;0.10;0.10;;;13.80;99.90;;;;;;4978889;28;20189;-85
2023/07/23 05:00:07;;;;;;;0.10;0.10;;;13.80;99.90;;;;;;4992584;28;20564;-86
2023/07/23 05:02:33;;;;;;;0.10;0.10;;;13.80;99.90;;;;;;4960609;28;20461;-84
2023/07/23 05:04:58;;;;;;;0.10;0.10;;;13.90;99.90;;;;;;4985430;28;20565;-84
2023/07/23 05:07:24;;;;;;;0.10;0.10;;;13.80;99.90;;;;;;4981087;28;20559;-85
2023/07/23 05:09:49;;;;;;;0.10;0.10;;;13.90;99.90;;;;;;4989669;28;20216;-85
2023/07/23 05:12:15;;;;;;;0.10;0.10;;;13.90;99.90;;;;;;4983509;28;20196;-86
2023/07/23 05:14:40;;;;;;;0.10;0.10;;;13.80;99.90;;;;;;4989033;28;20269;-85
2023/07/23 05:17:06;;;;;;;0.10;0.10;;;13.90;99.90;;;;;;4991976;28;20227;-83
2023/07/23 05:19:31;;;;;;;0.10;0.10;;;13.80;99.90;;;;;;4988801;28;20200;-84
2023/07/23 05:21:57;;;;;;;0.10;0.10;;;13.90;99.90;;;;;;4993022;28;20184;-86
2023/07/23 05:24:22;;;;;;;0.10;0.10;;;13.80;99.90;;;;;;4990248;28;20550;-83
2023/07/23 05:26:48;;;;;;;0.10;0.10;;;13.80;99.90;;;;;;4989810;28;20224;-86
2023/07/23 05:29:13;;;;;;;0.10;0.10;;;13.90;99.90;;;;;;4989058;28;20209;-84
2023/07/23 05:31:39;;;;;;;0.10;0.10;;;13.90;99.90;;;;;;4983379;28;20665;-85
2023/07/23 05:34:04;;;;;;;0.10;0.10;;;13.90;99.90;;;;;;4990156;28;20212;-85
2023/07/23 05:36:30;;;;;;;0.10;0.10;;;14.00;99.90;;;;;;4971022;28;20192;-86
2023/07/23 05:38:56;;;;;;;0.10;0.10;;;14.00;99.90;;;;;;4974578;28;20215;-85
2023/07/23 05:41:22;;;;;;;0.10;0.10;;;13.90;99.90;;;;;;4990165;28;20456;-84
2023/07/23 05:43:47;;;;;;;0.10;0.10;;;13.90;99.90;;;;;;4989084;28;20701;-83
2023/07/23 05:46:13;;;;;;;0.10;0.10;;;14.00;99.90;;;;;;4991038;28;20225;-87
2023/07/23 05:48:38;;;;;;;0.10;0.10;;;13.90;99.90;;;;;;4986599;28;20189;-86
2023/07/23 05:51:04;;;;;;;0.10;0.10;;;14.00;99.90;;;;;;4988614;28;20638;-86
2023/07/23 05:53:29;;;;;;;0.10;0.10;;;14.00;99.90;;;;;;4974066;28;20185;-86
2023/07/23 05:55:55;;;;;;;0.10;0.10;;;14.00;99.90;;;;;;4984018;28;20280;-86
2023/07/23 05:58:20;;;;;;;0.10;0.10;;;14.00;99.90;;;;;;4986152;28;20665;-86
2023/07/23 06:00:45;;;;;;;0.10;0.10;;;14.00;99.90;;;;;;4986132;28;20189;-85
2023/07/23 06:03:11;;;;;;;0.10;0.10;;;13.90;99.90;;;;;;4987343;28;20674;-85
2023/07/23 06:05:36;;;;;;;0.10;0.10;;;14.00;99.90;;;;;;4989027;28;20224;-86
2023/07/23 06:08:02;;;;;;;0.10;0.10;;;14.00;99.90;;;;;;4986778;28;20616;-87
2023/07/23 06:10:28;;;;;;;0.10;0.10;;;14.00;99.90;;;;;;4959103;28;20189;-85
2023/07/23 06:12:53;;;;;;;0.10;0.10;;;14.00;99.90;;;;;;4986611;28;20643;-85
2023/07/23 06:15:20;;;;;;;0.10;0.10;;;14.00;99.90;;;;;;4982656;28;20193;-85
2023/07/23 06:17:45;;;;;;;0.10;0.10;;;14.10;99.90;;;;;;4982551;28;20269;-83
2023/07/23 06:20:11;;;;;;;0.10;0.10;;;14.10;99.90;;;;;;4969849;28;20532;-85
2023/07/23 06:22:37;;;;;;;0.10;0.10;;;14.10;99.90;;;;;;4984521;28;20190;-85
2023/07/23 06:25:02;;;;;;;0.10;0.10;;;14.00;99.90;;;;;;4983959;28;20186;-84
2023/07/23 06:27:28;;;;;;;0.10;0.10;;;14.00;99.90;;;;;;4986063;28;20229;-85
2023/07/23 06:29:53;;;;;;;0.10;0.10;;;14.10;99.90;;;;;;4982077;28;20239;-84
2023/07/23 06:32:19;;;;;;;0.10;0.10;;;14.10;99.90;;;;;;4985354;28;20204;-85
2023/07/23 06:34:44;;;;;;;0.10;0.10;;;14.10;99.90;;;;;;4961034;28;20185;-84
2023/07/23 06:37:10;;;;;;;0.10;0.10;;;14.10;99.90;;;;;;4973452;28;20643;-84
2023/07/23 06:39:35;;;;;;;0.10;0.10;;;14.10;99.90;;;;;;4968028;28;20784;-82
2023/07/23 06:42:01;;;;;;;0.10;0.10;;;14.20;99.90;;;;;;4986993;28;20181;-82
2023/07/23 06:44:26;;;;;;;0.10;0.10;;;14.20;99.90;;;;;;4988081;28;20244;-84
2023/07/23 06:46:52;;;;;;;0.10;0.10;;;14.30;99.90;;;;;;4989239;28;20712;-84
2023/07/23 06:49:17;;;;;;;0.10;0.10;;;14.30;99.90;;;;;;4977639;28;20185;-83
2023/07/23 06:51:43;;;;;;;0.10;0.10;;;14.30;99.90;;;;;;4984947;28;20235;-83
2023/07/23 06:54:08;;;;;;;0.10;0.10;;;14.20;99.90;;;;;;4965560;28;20616;-84
2023/07/23 06:56:35;;;;;;;0.10;0.10;;;14.20;99.90;;;;;;4984892;28;20194;-84
2023/07/23 06:59:03;;;;;;;0.10;0.10;;;14.20;99.90;;;;;;4986148;28;20185;-84
2023/07/23 07:01:29;;;;;;;0.10;0.10;;;14.20;99.90;;;;;;4982613;28;20448;-83
2023/07/23 07:03:56;;;;;;;0.10;0.10;;;14.20;99.90;;;;;;4987092;28;20447;-84
2023/07/23 07:06:21;;;;;;;0.10;0.10;;;14.20;99.90;;;;;;4986641;28;20673;-83
2023/07/23 07:08:47;;;;;;;0.10;0.10;;;14.20;99.90;;;;;;4983800;28;20506;-84
2023/07/23 07:11:12;;;;;;;0.10;0.10;;;14.20;99.90;;;;;;4985418;28;20210;-83
2023/07/23 07:13:38;;;;;;;0.10;0.10;;;14.20;99.90;;;;;;4979011;28;20201;-83
2023/07/23 07:16:04;;;;;;;0.10;0.10;;;14.30;99.90;;;;;;4989836;28;20185;-83
2023/07/23 07:18:29;;;;;;;0.10;0.10;;;14.20;99.90;;;;;;4970091;28;20478;-83
2023/07/23 07:21:00;;;;;;;0.10;0.10;;;14.30;99.90;;;;;;4967261;28;20272;-83
2023/07/23 07:23:30;;;;;;;0.10;0.10;;;14.30;99.90;;;;;;4989358;28;20196;-85
2023/07/23 07:25:57;;;;;;;0.10;0.10;;;14.30;99.90;;;;;;4989684;28;20490;-83
2023/07/23 07:28:25;;;;;;;0.10;0.10;;;14.30;99.90;;;;;;4965093;28;20973;-86
2023/07/23 07:30:55;;;;;;;0.10;0.10;;;14.30;99.90;;;;;;4983436;28;20447;-84
2023/07/23 07:33:21;;;;;;;0.10;0.10;;;14.30;99.90;;;;;;4991418;28;20538;-84
2023/07/23 07:35:46;;;;;;;0.10;0.10;;;14.30;99.90;;;;;;4987992;28;20531;-85
2023/07/23 07:38:12;;;;;;;0.10;0.10;;;14.30;99.90;;;;;;4989369;28;20195;-85
2023/07/23 07:40:40;;;;;;;0.10;0.10;;;14.30;99.90;;;;;;4986873;28;20189;-85
2023/07/23 07:43:06;;;;;;;0.10;0.10;;;14.30;99.90;;;;;;4992226;28;21185;-84
2023/07/23 07:45:31;;;;;;;0.10;0.10;;;14.30;99.90;;;;;;4969475;28;20460;-85
2023/07/23 07:47:57;;;;;;;0.10;0.10;;;14.30;99.90;;;;;;4990358;28;20220;-85
2023/07/23 07:50:22;;;;;;;0.10;0.10;;;14.30;99.90;;;;;;4981575;28;20219;-84
2023/07/23 07:52:48;;;;;;;0.10;0.10;;;14.40;99.90;;;;;;4984358;28;20193;-83
2023/07/23 07:55:13;;;;;;;0.10;0.10;;;14.40;99.90;;;;;;4975372;28;20239;-83
2023/07/23 07:57:39;;;;;;;0.10;0.10;;;14.40;99.90;;;;;;4991075;28;20649;-83
2023/07/23 08:00:07;;;;;;;0.10;0.10;;;14.40;99.90;;;;;;4991159;28;20248;-84
2023/07/23 08:02:33;;;;;;;0.10;0.10;;;14.40;99.90;;;;;;4978495;28;20300;-83
2023/07/23 08:04:58;;;;;;;0.10;0.10;;;14.40;99.90;;;;;;4973025;28;20452;-85
2023/07/23 08:07:24;;;;;;;0.10;0.10;;;14.40;99.90;;;;;;4973789;28;20229;-83
2023/07/23 08:09:52;;;;;;;0.10;0.10;;;14.40;99.90;;;;;;4975924;28;20251;-85
2023/07/23 08:12:18;;;;;;;0.10;0.10;;;14.40;99.90;;;;;;4972051;28;20455;-84
2023/07/23 08:14:44;;;;;;;0.10;0.10;;;14.50;99.90;;;;;;4969804;28;20452;-84
2023/07/23 08:17:10;;;;;;;0.10;0.10;;;14.50;99.90;;;;;;4969347;28;20460;-82
2023/07/23 08:19:36;;;;;;;0.10;0.10;;;14.50;99.90;;;;;;4968035;28;20948;-84
2023/07/23 08:22:02;;;;;;;0.10;0.10;;;14.50;99.90;;;;;;4987481;28;20448;-82
2023/07/23 08:24:28;;;;;;;0.10;0.10;;;14.50;99.90;;;;;;4990919;28;20263;-83
2023/07/23 08:26:57;;;;;;;0.10;0.10;;;14.40;99.90;;;;;;4969460;28;21128;-85
2023/07/23 08:29:25;;;;;;;0.10;0.10;;;14.40;99.90;;;;;;4982995;28;20196;-82
2023/07/23 08:31:52;;;;;;;0.10;0.10;;;14.40;99.90;;;;;;4972224;28;20874;-82
2023/07/23 08:34:18;;;;;;;0.10;0.10;;;14.50;99.90;;;;;;4991501;28;20436;-82
2023/07/23 08:36:44;;;;;;;0.10;0.10;;;14.50;99.90;;;;;;4992658;28;21017;-82
2023/07/23 08:39:09;;;;;;;0.10;0.10;;;14.60;99.90;;;;;;4988288;28;20447;-82
2023/07/23 08:42:20;;;;;;;0.10;0.10;;;14.60;99.90;;;;;;4992299;28;20440;-84
2023/07/23 08:45:15;;;;;;;0.10;0.10;;;14.70;99.90;;;;;;4981410;28;20227;-83
2023/07/23 08:47:46;;;;;;;0.10;0.10;;;14.70;99.90;;;;;;4965607;28;21114;-83
2023/07/23 08:50:14;;;;;;;0.10;0.10;;;14.60;99.90;;;;;;4969252;28;20468;-82
2023/07/23 08:52:41;;;;;;;0.10;0.10;;;14.50;99.90;;;;;;4974395;28;20466;-84
2023/07/23 08:55:07;;;;;;;0.10;0.10;;;14.60;99.90;;;;;;4974690;28;20467;-81
2023/07/23 08:57:33;;;;;;;0.10;0.10;;;14.50;99.90;;;;;;4980189;28;20461;-82
2023/07/23 09:00:01;;;;;;;0.10;0.10;;;14.60;99.90;;;;;;4974651;28;20438;-82
2023/07/23 09:02:28;;;;;;;0.10;0.10;;;14.70;99.90;;;;;;4972718;28;20252;-81
2023/07/23 09:04:54;;;;;;;0.10;0.10;;;14.70;99.90;;;;;;4984952;28;20841;-82
2023/07/23 09:07:19;;;;;;;0.10;0.10;;;14.70;99.90;;;;;;4987648;28;20546;-82
2023/07/23 09:09:48;;;;;;;0.10;0.10;;;14.70;99.90;;;;;;4991829;28;20219;-82
2023/07/23 09:12:14;;;;;;;0.20;0.20;;;14.60;99.90;;;;;;4992377;28;20171;-83
2023/07/23 09:14:45;;;;;;;0.10;0.10;;;14.60;99.90;;;;;;4989296;28;20491;-83
2023/07/23 09:17:19;;;;;;;0.10;0.10;;;14.70;99.90;;;;;;4983830;28;20177;-83
2023/07/23 09:19:45;;;;;;;0.10;0.10;;;14.70;99.90;;;;;;4986133;28;20439;-83
2023/07/23 09:22:10;;;;;;;0.10;0.10;;;14.70;99.90;;;;;;4988947;28;20455;-84
2023/07/23 09:24:36;;;;;;;0.10;0.10;;;14.70;99.90;;;;;;4990794;28;20185;-84
2023/07/23 09:27:02;;;;;;;0.10;0.10;;;14.80;99.90;;;;;;4971569;28;20225;-83
2023/07/23 09:29:35;;;;;;;0.10;0.10;;;14.90;99.90;;;;;;4989043;28;20255;-83
2023/07/23 09:32:01;;;;;;;0.10;0.10;;;14.90;99.90;;;;;;4988165;28;20440;-83
2023/07/23 09:34:27;;;;;;;0.10;0.10;;;15.10;99.90;;;;;;4985504;28;20780;-84
2023/07/23 09:36:53;;;;;;;0.10;0.10;;;15.00;99.90;;;;;;4984737;28;21040;-83
2023/07/23 09:39:19;;;;;;;0.10;0.10;;;15.00;99.90;;;;;;4974240;28;20189;-84
2023/07/23 09:41:45;;;;;;;0.10;0.10;;;15.00;99.90;;;;;;4972867;28;20185;-83
2023/07/23 09:44:12;;;;;;;0.10;0.10;;;15.00;99.90;;;;;;4990284;28;20470;-83
2023/07/23 09:46:45;;;;;;;0.10;0.10;;;14.90;99.90;;;;;;4986576;28;20227;-85
2023/07/23 09:49:12;;;;;;;0.10;0.10;;;14.90;99.90;;;;;;4983104;28;20451;-83
2023/07/23 09:51:38;;;;;;;0.10;0.10;;;15.00;99.90;;;;;;4969509;28;20539;-85
2023/07/23 09:54:05;;;;;;;0.10;0.10;;;15.00;99.90;;;;;;4987603;28;20962;-83
2023/07/23 09:56:33;;;;;;;0.10;0.10;;;15.00;99.90;;;;;;4967912;28;20864;-85
2023/07/23 09:59:00;;;;;;;0.10;0.10;;;15.00;99.90;;;;;;4989565;28;20448;-85
2023/07/23 10:01:26;;;;;;;0.20;0.20;;;15.00;99.90;;;;;;4988811;28;20448;-83
2023/07/23 10:03:53;;;;;;;0.20;0.20;;;15.00;99.90;;;;;;4987936;28;21337;-85
2023/07/23 10:06:23;;;;;;;0.10;0.10;;;15.00;99.90;;;;;;4989008;28;20995;-86
2023/07/23 10:08:49;;;;;;;0.10;0.10;;;15.10;99.90;;;;;;4969451;28;20518;-85
2023/07/23 10:11:17;;;;;;;0.10;0.10;;;15.10;99.90;;;;;;4988258;28;20436;-86
2023/07/23 10:13:44;;;;;;;0.10;0.10;;;15.10;99.90;;;;;;4991032;28;20444;-84
2023/07/23 10:16:20;;;;;;;0.10;0.10;;;15.10;99.90;;;;;;4966652;28;20440;-83
2023/07/23 10:18:47;;;;;;;0.10;0.10;;;15.10;99.90;;;;;;4985364;28;20458;-84
2023/07/23 10:21:13;;;;;;;0.10;0.10;;;15.10;99.90;;;;;;4988636;28;20482;-83
2023/07/23 10:23:40;;;;;;;0.10;0.10;;;15.10;99.90;;;;;;4984978;28;20530;-82
2023/07/23 10:26:42;;;;;;;0.10;0.10;;;15.10;99.90;;;;;;4985676;28;20204;-83
2023/07/23 10:29:15;;;;;;;0.10;0.10;;;15.20;99.90;;;;;;4987550;28;20439;-86
2023/07/23 10:31:42;;;;;;;0.10;0.10;;;15.20;99.90;;;;;;4985643;28;20458;-86
2023/07/23 10:34:25;;;;;;;0.10;0.10;;;15.20;99.90;;;;;;4983125;28;20452;-85
2023/07/23 10:37:13;;;;;;;0.10;0.10;;;15.10;99.90;;;;;;4986964;28;20440;-87
2023/07/23 10:39:44;;;;;;;0.10;0.10;;;15.20;99.90;;;;;;4988136;28;20448;-84
2023/07/23 10:42:10;;;;;;;0.10;0.10;;;15.20;99.90;;;;;;4990987;28;20491;-85
2023/07/23 10:44:38;;;;;;;0.10;0.10;;;15.10;99.90;;;;;;4988761;28;20476;-83
2023/07/23 10:47:31;;;;;;;0.10;0.10;;;15.10;99.90;;;;;;4972583;28;20231;-86
2023/07/23 10:50:12;;;;;;;0.10;0.10;;;15.20;99.90;;;;;;4984928;28;20524;-86
2023/07/23 10:52:38;;;;;;;0.10;0.10;;;15.50;99.90;;;;;;4980688;28;20526;-86
2023/07/23 10:55:04;;;;;;;0.10;0.10;;;15.30;99.90;;;;;;4984847;28;20444;-86
2023/07/23 10:57:31;;;;;;;0.10;0.10;;;15.40;99.90;;;;;;4989015;28;20191;-88
2023/07/23 10:59:56;;;;;;;0.10;0.10;;;15.30;99.90;;;;;;4990653;28;20759;-85
2023/07/23 11:02:28;;;;;;;0.10;0.10;;;15.40;99.90;;;;;;4986236;28;20455;-86
2023/07/23 11:04:57;;;;;;;0.10;0.10;;;15.30;99.90;;;;;;4971189;28;20234;-86
2023/07/23 11:07:27;;;;;;;0.10;0.10;;;15.20;99.90;;;;;;4986735;28;20495;-86
2023/07/23 11:09:54;;;;;;;0.10;0.10;;;15.30;99.90;;;;;;4986313;28;20443;-86
2023/07/23 11:12:22;;;;;;;0.10;0.10;;;15.20;99.90;;;;;;4967198;28;20464;-87
2023/07/23 11:14:48;;;;;;;0.10;0.10;;;15.20;99.90;;;;;;4990197;28;20576;-85
2023/07/23 11:17:13;;;;;;;0.10;0.10;;;15.20;99.90;;;;;;4989945;28;20539;-85
2023/07/23 11:19:45;;;;;;;0.10;0.10;;;15.30;99.90;;;;;;4971399;28;20192;-86
2023/07/23 11:22:13;;;;;;;0.10;0.10;;;15.30;99.90;;;;;;4981718;28;20212;-85
2023/07/23 11:24:40;;;;;;;0.10;0.10;;;15.30;99.90;;;;;;4972230;28;20440;-86
2023/07/23 11:27:05;;;;;;;0.10;0.10;;;15.40;99.90;;;;;;4955237;28;20491;-86
2023/07/23 11:29:31;;;;;;;0.10;0.10;;;15.50;99.90;;;;;;4970467;28;20452;-85
2023/07/23 11:31:57;;;;;;;0.10;0.10;;;15.40;99.90;;;;;;4989113;28;20200;-85
2023/07/23 11:34:24;;;;;;;0.10;0.10;;;15.40;99.90;;;;;;4987909;28;20437;-85
2023/07/23 11:36:55;;;;;;;0.10;0.10;;;15.40;99.90;;;;;;4970456;28;20189;-84
2023/07/23 11:39:24;;;;;;;0.10;0.10;;;15.40;99.90;;;;;;4983363;28;20459;-88
2023/07/23 11:41:49;;;;;;;0.10;0.10;;;15.50;99.90;;;;;;4988139;28;20489;-85
2023/07/23 11:44:15;;;;;;;0.10;0.10;;;15.50;99.90;;;;;;4987549;28;20839;-85
2023/07/23 11:46:41;;;;;;;0.10;0.10;;;15.60;99.90;;;;;;4981957;28;20916;-86
2023/07/23 11:49:09;;;;;;;0.10;0.10;;;15.60;99.90;;;;;;4985588;28;20196;-86
2023/07/23 11:51:37;;;;;;;0.10;0.10;;;15.50;99.90;;;;;;4983338;28;20468;-85
2023/07/23 11:54:07;;;;;;;0.10;0.10;;;15.60;99.90;;;;;;4989694;28;20514;-85
2023/07/23 11:56:36;;;;;;;0.10;0.10;;;15.50;99.90;;;;;;4970444;28;20831;-86
2023/07/23 11:59:04;;;;;;;0.10;0.10;;;15.70;99.90;;;;;;4985871;28;20490;-85
2023/07/23 12:01:29;;;;;;;0.10;0.10;;;15.70;99.90;;;;;;4981357;28;20444;-85
2023/07/23 12:03:59;;;;;;;0.10;0.10;;;15.70;99.90;;;;;;4984730;28;20543;-84
2023/07/23 12:06:28;;;;;;;0.10;0.10;;;15.90;99.90;;;;;;4978844;28;20272;-85
2023/07/23 12:08:54;;;;;;;0.10;0.10;;;15.90;99.90;;;;;;4970565;28;20562;-85
2023/07/23 12:11:22;;;;;;;0.10;0.10;;;15.90;99.90;;;;;;4972098;28;20546;-85
2023/07/23 12:13:55;;;;;;;0.10;0.10;;;15.90;99.90;;;;;;4971649;28;20185;-86
2023/07/23 12:16:42;;;;;;;0.10;0.10;;;15.80;99.90;;;;;;4984794;28;20442;-86
2023/07/23 12:19:14;;;;;;;0.10;0.10;;;15.80;99.90;;;;;;4989358;28;20451;-86
2023/07/23 12:21:44;;;;;;;0.10;0.10;;;15.90;99.90;;;;;;4975239;28;20993;-85
2023/07/23 12:24:27;;;;;;;0.10;0.10;;;15.80;99.90;;;;;;4975830;28;20443;-86
2023/07/23 12:27:00;;;;;;;0.10;0.10;;;15.90;99.90;;;;;;4966019;28;20484;-86
2023/07/23 12:29:27;;;;;;;0.10;0.10;;;15.90;99.90;;;;;;4974104;28;20979;-85
2023/07/23 12:32:13;;;;;;;0.10;0.10;;;16.00;99.90;;;;;;4993955;28;20435;-85
2023/07/23 12:34:41;;;;;;;0.10;0.10;;;15.90;99.90;;;;;;4992535;28;20431;-84
2023/07/23 12:37:07;;;;;;;0.10;0.10;;;16.00;99.90;;;;;;4980644;28;20440;-86
2023/07/23 12:39:32;;;;;;;0.10;0.10;;;16.00;99.90;;;;;;4974915;28;20470;-86
2023/07/23 12:41:58;;;;;;;0.10;0.10;;;16.00;99.90;;;;;;4991196;28;20868;-85
2023/07/23 12:44:25;;;;;;;0.10;0.10;;;16.10;99.90;;;;;;4992003;28;20351;-85
2023/07/23 12:46:50;;;;;;;0.10;0.10;;;16.10;99.90;;;;;;4973548;28;20229;-85